Station: Andamooka

  Atmospheric Gas Attenuation - ITU Rec 676-11   --------------- db/100km ---------------
Date Time Temp RH % AH g/m3 Dew Point Wind Direction Speed kph Gust kph Barometer mB Rainfall Since 9am 24GHz 47GHz 76GHz 122GHz 134GHz 241GHz
16 09:00 1013.1
15 09:00 9.1 70 6.21 3.9 0 1013.1 0 14.7 23.4 32.5 84.8 72.4 246.7
14 09:00 9.7 79 7.29 6.3 0 1013.1 0 17.0 24.9 36.5 95.6 85.9 294.2
13 09:00 9.1 87 7.72 7 9 1013.1 0.1 17.9 25.8 38.5 101.0 92.4 316.8
12 09:00 7 93 7.21 5.9 6 1013.1 2 16.9 25.6 37.4 98.0 87.9 300.6
11 09:00 8.8 82 7.14 6 9 1013.1 0 16.7 24.9 36.3 95.0 84.9 290.5
10 09:00 10.8 52 5.14 1.3 0 1013.1 0 12.3 21.3 27.8 72.4 57.7 195.4
09 09:00 4.8 65 4.36 -1.1 0 1013.1 0 10.9 21.6 26.9 70.0 52.3 175.7
08 09:00 7.1 63 4.92 0.6 0 1013.1 0 12.0 21.9 28.3 73.6 57.7 195.0
07 09:00 7.5 66 5.29 1.7 0 1013.1 0 12.8 22.3 29.5 77.0 62.1 210.3
06 09:00 9.2 79 7.06 5.7 1013.1 16.5 24.7 35.8 93.7 83.4 285.3
05 09:00 10 84 7.9 7.5 9 1013.1 0 18.3 25.8 38.8 101.8 93.7 321.7
04 09:00 8.5 85 7.26 6.1 6 1013.1 0 17.0 25.2 36.9 96.7 86.8 297.3
03 09:00 11.2 78 7.91 7.5 15 1013.1 0 18.2 25.5 38.3 100.4 92.4 317.2
02 09:00 10.1 86 8.13 7.8 0 1013.1 18.8 26.2 39.7 104.2 96.7 332.2
01 09:00 12 53 5.65 2.7 7 1013.1 0 13.4 21.8 29.3 76.3 62.9 213.9
30 09:00 7.5 62 4.96 0.8 6 1013.1 0 12.1 21.8 28.3 73.6 57.9 195.7
29 09:00 7.9 60 4.93 0.7 11 1013.1 0 12.0 21.7 28.0 73.0 57.3 193.5
28 09:00 9.6 58 5.31 1.7 4 1013.1 0 12.7 21.9 28.9 75.2 60.7 205.7
27 09:00 8.7 56 4.84 0.5 0 1013.1 0 11.8 21.4 27.4 71.3 55.6 187.7
26 09:00 11.7 58 6.07 3.7 11 1013.1 0 14.3 22.5 30.9 80.7 68.3 232.8
25 09:00 10.8 60 5.93 3.3 0 1013.1 14.0 22.5 30.7 80.2 67.4 229.3
24 09:00 8.3 73 6.16 3.7 0 1013.1 0 14.6 23.5 32.6 85.2 72.5 247.0
23 09:00 10.2 84 8 7.7 4 1013.1 0 18.5 26.0 39.1 102.7 94.9 325.6
22 09:00 11.7 83 8.68 8.9 11 1013.1 0 19.9 26.6 41.2 108.2 102.2 351.5
21 09:00 11.4 82 8.42 8.4 11 1013.1 0 19.3 26.3 40.3 105.7 99.0 340.4
20 09:00 10.7 67 6.58 4.8 15 1013.1 0 15.4 23.5 33.2 86.9 75.6 258.3
19 09:00 12.6 48 5.31 2 11 1013.1 0 12.6 21.2 27.8 72.4 58.4 198.2
18 09:00 11.7 56 5.86 3.4 7 1013.1 0 13.8 22.2 30.1 78.6 65.7 223.7
17 09:00 12.1 57 6.11 3.9 0 1013.1 0 14.4 22.5 30.9 80.7 68.5 233.3
16 09:00 11 80 8.01 7.7 0 1013.1 0 18.5 25.7 38.8 101.7 94.0 322.7
15 09:00 10.7 69 6.78 5.3 0 1013.1 0 15.8 23.8 34.0 89.0 78.2 267.2
14 09:00 9.3 87 7.82 7.2 4 1013.1 0.8 18.1 25.9 38.8 101.9 93.5 320.7
13 09:00 15 48 6.15 4.3 11 1013.1 0 14.3 21.8 30.0 78.2 66.5 226.7
12 09:00 9.5 49 4.46 -0.6 2 1013.1 0 10.9 20.6 25.8 67.0 50.5 169.9
11 09:00 11 54 5.41 2.2 2 1013.1 0 12.9 21.7 28.7 74.8 60.8 206.4
10 09:00 9.2 68 6.07 3.7 0 1013.1 0 14.4 23.1 31.9 83.3 70.5 240.2
09 09:00 8.6 59 5.07 1 0 1013.1 0 12.3 21.7 28.3 73.7 58.5 197.8
08 09:00 8.9 64 5.61 2.6 9 1013.1 0 13.4 22.5 30.2 78.9 65.0 220.6
07 09:00 9.6 69 6.32 4.2 19 1013.1 0 14.9 23.4 32.7 85.4 73.3 250.1
06 09:00 11 52 5.21 1.6 0 1013.1 0 12.5 21.4 28.0 72.9 58.4 197.9
05 09:00 9.1 66 5.86 3.1 0 1013.1 0 13.9 22.8 31.1 81.2 67.9 231.1
04 09:00 10.9 70 6.96 5.7 0 1013.1 0 16.2 24.1 34.6 90.6 80.3 274.7
03 09:00 14.6 67 8.38 8.7 28 1013.1 0 19.1 25.3 38.5 101.1 94.5 325.0
02 09:00 10.8 77 7.61 7 0 1013.1 0 17.6 25.1 37.3 97.7 88.9 304.9
01 09:00 12.1 94 10.08 11.2 9 1013.1 0 22.9 28.9 46.9 123.4 121.1 417.8
31 09:00 11.1 84 8.46 8.5 6 1013.1 0.1 19.4 26.5 40.6 106.5 100.0 343.6
30 09:00 12.5 48 5.28 1.9 17 1013.1 0 12.6 21.1 27.7 72.2 58.1 197.2
29 09:00 12.8 66 7.39 6.6 0 1013.1 0 17.1 24.2 35.5 92.9 83.8 287.3
28 09:00 14.2 69 8.43 8.7 11 1013.1 0 19.2 25.5 38.9 102.1 95.7 328.9
27 09:00 10.4 65 6.27 4.1 0 1013.1 0.1 14.8 23.1 32.2 84.1 72.0 245.4
26 09:00 11 60 6.01 3.6 6 1013.1 0 14.2 22.6 31.0 80.8 68.2 232.2
25 09:00 10.3 47 4.5 -0.4 4 1013.1 0 11.0 20.5 25.7 66.7 50.5 169.9
24 09:00 12.5 71 7.81 7.4 22 1013.1 0 18.0 25.0 37.3 97.7 89.6 307.5
23 09:00 13.3 78 9.01 9.6 19 1013.1 0 20.5 26.7 41.7 109.6 104.5 359.8
22 09:00 11.3 60 6.12 3.9 15 1013.1 0 14.4 22.7 31.3 81.6 69.3 236.1
21 09:00 10.4 81 7.81 7.3 19 1013.1 0 18.1 25.6 38.3 100.3 92.0 315.8
20 09:00 11.2 73 7.4 6.6 7 1013.1 0 17.1 24.7 36.2 94.9 85.7 293.6
19 09:00 17.6 45 6.75 5.5 9 1013.1 0 15.5 22.1 31.1 81.4 71.3 244.0
18 09:00 15.6 49 6.52 5.1 9 1013.1 0 15.1 22.2 31.1 81.2 70.4 240.4
17 09:00 14.2 53 6.47 4.8 11 1013.1 0 15.0 22.5 31.4 82.1 71.0 242.5
16 09:00 13.3 27 3.12 -5.2 0 1013.1 0 8.0 18.0 20.2 52.0 33.5 110.5
15 09:00 11.5 47 4.86 0.7 4 1013.1 0 11.7 20.8 26.6 69.1 53.9 182.1
14 09:00 13 46 5.22 1.7 20 1013.1 0 12.4 20.9 27.4 71.2 57.1 193.5
13 09:00 14.1 57 6.92 5.7 24 1013.1 0 16.0 23.2 33.1 86.7 76.6 262.1
12 09:00 12.3 62 6.73 5.2 0 1013.1 0 15.7 23.3 33.2 86.7 76.0 259.7
11 09:00 13.2 64 7.35 6.6 0 1013.1 0 16.9 24.1 35.2 92.0 82.9 284.1
10 09:00 12.7 76 8.46 8.7 6 1013.1 0 19.3 26.0 39.8 104.4 97.9 336.7
09 09:00 14.7 76 9.57 10.5 22 1013.1 0 21.6 27.2 43.3 113.7 110.1 379.7
08 09:00 16.1 68 9.32 10.3 4 1013.1 0 21.0 26.4 41.5 109.0 104.9 361.4
07 09:00 19 40 6.52 5.3 9 1013.1 0 15.0 21.4 29.8 77.8 67.4 230.6
06 09:00 14.4 53 6.55 5.1 9 1013.1 0 15.2 22.5 31.6 82.7 71.8 245.3
05 09:00 12 65 6.93 5.6 2 1013.1 0 16.1 23.7 34.1 89.1 78.8 269.6
04 09:00 13 66 7.49 6.8 2 1013.1 0 17.3 24.3 35.8 93.7 84.9 291.1
03 09:00 14 89 10.74 12.2 20 1013.1 0 24.2 29.4 48.6 127.9 127.4 440.0
02 09:00 13.7 85 10.07 11.3 9 1013.1 0.1 22.7 28.4 45.9 120.8 118.5 408.7
01 09:00 12 76 8.1 7.9 11 1013.1 0 18.6 25.6 38.7 101.4 94.0 322.8
30 09:00 10.9 74 7.36 6.5 13 1013.1 3 17.1 24.7 36.2 94.9 85.5 292.9
29 09:00 14.4 91 11.25 13 11 1013.1 4 25.2 30.2 50.6 133.2 134.0 463.1
28 09:00 20.8 54 9.78 11.2 11 1013.1 0 21.7 25.7 40.9 107.4 104.5 360.6
27 09:00 17.9 76 11.6 13.7 11 1013.1 0 25.8 29.6 49.8 131.2 132.8 459.4
26 09:00 19.5 95 15.94 18.7 6 1013.1 2 35.0 36.8 68.0 179.7 192.9 669.1
25 09:00 23 56 11.51 13.8 9 1013.1 0 25.3 27.8 46.3 122.0 123.2 426.4
24 09:00 19.8 76 12.98 15.4 24 1013.1 0.6 28.6 31.3 54.4 143.5 148.6 514.7
23 09:00 19.5 61 10.24 11.8 9 1013.1 0.2 22.8 26.8 43.3 113.9 112.1 387.2
22 09:00 21 54 9.89 11.3 9 1013.1 0 22.0 25.8 41.2 108.2 105.6 364.5
21 09:00 19.8 61 10.42 12.1 6 1013.1 0.1 23.2 27.0 43.9 115.4 114.0 393.9
20 09:00 20.3 79 13.89 16.5 11 1013.1 0.1 30.5 32.7 58.0 153.1 160.5 556.3
19 09:00 18.9 52 8.42 9 9 1013.1 0 19.0 24.2 36.7 96.1 90.0 309.6
18 09:00 17.5 64 9.54 10.6 11 1013.1 0 21.4 26.3 41.6 109.4 105.8 365.0
17 09:00 16.6 66 9.32 10.2 11 1013.1 0 21.0 26.2 41.2 108.3 104.2 359.1
16 09:00 23.5 47 9.94 11.5 22 1013.1 0 21.9 25.2 40.1 105.4 102.9 355.4
15 09:00 21.6 30 5.69 3.6 11 1013.1 0 13.1 19.7 26.2 68.1 56.3 191.8
14 09:00 20.4 29 5.13 1.8 0 1013.1 0 12.0 19.2 24.7 64.3 51.2 173.5
13 09:00 19 31 5.05 1.7 6 1013.1 0 11.9 19.4 24.9 64.7 51.2 173.4
12 09:00 16.9 46 6.62 5.3 15 1013.1 0 15.3 22.0 30.9 80.8 70.4 240.7
11 09:00 24.3 31 6.86 6.3 4 1013.1 0 15.5 20.7 29.1 75.9 66.8 229.0
10 09:00 20.6 59 10.56 12.3 0 1013.1 0 23.4 27.0 44.0 115.7 114.6 396.2
09 09:00 20.4 42 7.43 7.1 0 1013.1 0 16.8 22.4 32.5 84.9 76.6 263.0
08 09:00 21.5 38 7.16 6.9 17 1013.1 0 16.2 21.7 31.1 81.3 72.5 248.7

Last Refresh: 17-Jul-2020 01:47:56

Most of the information presented on this site is sourced from the Bureau of Meteorology.  Copyright in all material sourced from the Bureau of Meteorology resides with the Commonwealth of Australia.